sensor_id;sensor_type;location;lat;lon;timestamp;temperature;humidity
4376;DHT22;2202;50.866;12.750;2023-04-03T00:00:06;1.60;85.00
4376;DHT22;2202;50.866;12.750;2023-04-03T00:02:33;1.60;85.40
4376;DHT22;2202;50.866;12.750;2023-04-03T00:05:00;1.60;85.60
4376;DHT22;2202;50.866;12.750;2023-04-03T00:07:27;1.50;85.20
4376;DHT22;2202;50.866;12.750;2023-04-03T00:09:55;1.50;85.60
4376;DHT22;2202;50.866;12.750;2023-04-03T00:12:22;1.50;86.40
4376;DHT22;2202;50.866;12.750;2023-04-03T00:14:49;1.40;86.00
4376;DHT22;2202;50.866;12.750;2023-04-03T00:17:16;1.40;86.00
4376;DHT22;2202;50.866;12.750;2023-04-03T00:19:43;1.30;86.20
4376;DHT22;2202;50.866;12.750;2023-04-03T00:22:09;1.30;86.60
4376;DHT22;2202;50.866;12.750;2023-04-03T00:24:36;1.30;86.40
4376;DHT22;2202;50.866;12.750;2023-04-03T00:27:04;1.30;86.60
4376;DHT22;2202;50.866;12.750;2023-04-03T00:29:31;1.30;86.40
4376;DHT22;2202;50.866;12.750;2023-04-03T00:31:58;1.30;86.40
4376;DHT22;2202;50.866;12.750;2023-04-03T00:34:25;1.30;86.40
4376;DHT22;2202;50.866;12.750;2023-04-03T00:36:52;1.30;86.40
4376;DHT22;2202;50.866;12.750;2023-04-03T00:39:19;1.30;86.00
4376;DHT22;2202;50.866;12.750;2023-04-03T00:41:45;1.20;86.40
4376;DHT22;2202;50.866;12.750;2023-04-03T00:47:30;1.20;86.40
4376;DHT22;2202;50.866;12.750;2023-04-03T00:49:58;1.20;86.60
4376;DHT22;2202;50.866;12.750;2023-04-03T00:52:27;1.10;86.40
4376;DHT22;2202;50.866;12.750;2023-04-03T00:54:58;1.10;86.40
4376;DHT22;2202;50.866;12.750;2023-04-03T00:57:29;1.10;86.20
4376;DHT22;2202;50.866;12.750;2023-04-03T01:00:03;1.00;86.60
4376;DHT22;2202;50.866;12.750;2023-04-03T01:02:31;1.00;86.60
4376;DHT22;2202;50.866;12.750;2023-04-03T01:04:58;1.00;86.80
4376;DHT22;2202;50.866;12.750;2023-04-03T01:07:31;0.90;87.00
4376;DHT22;2202;50.866;12.750;2023-04-03T01:10:01;0.80;86.40
4376;DHT22;2202;50.866;12.750;2023-04-03T01:12:30;0.90;86.60
4376;DHT22;2202;50.866;12.750;2023-04-03T01:15:00;0.90;86.20
4376;DHT22;2202;50.866;12.750;2023-04-03T01:17:30;0.80;85.20
4376;DHT22;2202;50.866;12.750;2023-04-03T01:20:12;0.80;85.80
4376;DHT22;2202;50.866;12.750;2023-04-03T01:22:51;0.80;85.80
4376;DHT22;2202;50.866;12.750;2023-04-03T01:25:21;0.70;85.60
4376;DHT22;2202;50.866;12.750;2023-04-03T01:27:48;0.70;85.80
4376;DHT22;2202;50.866;12.750;2023-04-03T01:30:19;0.70;86.20
4376;DHT22;2202;50.866;12.750;2023-04-03T01:32:48;0.70;85.80
4376;DHT22;2202;50.866;12.750;2023-04-03T01:35:15;0.70;84.40
4376;DHT22;2202;50.866;12.750;2023-04-03T01:37:42;0.60;85.00
4376;DHT22;2202;50.866;12.750;2023-04-03T01:40:09;0.60;85.00
4376;DHT22;2202;50.866;12.750;2023-04-03T01:42:36;0.60;84.60
4376;DHT22;2202;50.866;12.750;2023-04-03T01:45:03;0.60;84.40
4376;DHT22;2202;50.866;12.750;2023-04-03T01:47:30;0.60;85.20
4376;DHT22;2202;50.866;12.750;2023-04-03T01:49:58;0.60;84.80
4376;DHT22;2202;50.866;12.750;2023-04-03T01:52:25;0.60;84.60
4376;DHT22;2202;50.866;12.750;2023-04-03T01:54:52;0.50;84.40
4376;DHT22;2202;50.866;12.750;2023-04-03T01:57:19;0.50;85.00
4376;DHT22;2202;50.866;12.750;2023-04-03T01:59:46;0.50;85.60
4376;DHT22;2202;50.866;12.750;2023-04-03T02:02:13;0.50;85.60
4376;DHT22;2202;50.866;12.750;2023-04-03T02:04:40;0.50;85.20
4376;DHT22;2202;50.866;12.750;2023-04-03T02:07:08;0.50;84.80
4376;DHT22;2202;50.866;12.750;2023-04-03T02:09:35;0.50;84.60
4376;DHT22;2202;50.866;12.750;2023-04-03T02:12:02;0.50;84.40
4376;DHT22;2202;50.866;12.750;2023-04-03T02:14:29;0.50;84.80
4376;DHT22;2202;50.866;12.750;2023-04-03T02:16:56;0.40;85.00
4376;DHT22;2202;50.866;12.750;2023-04-03T02:19:23;0.40;85.00
4376;DHT22;2202;50.866;12.750;2023-04-03T02:21:50;0.40;85.20
4376;DHT22;2202;50.866;12.750;2023-04-03T02:24:18;0.40;85.20
4376;DHT22;2202;50.866;12.750;2023-04-03T02:26:46;0.40;85.60
4376;DHT22;2202;50.866;12.750;2023-04-03T02:29:13;0.40;85.00
4376;DHT22;2202;50.866;12.750;2023-04-03T02:31:40;0.30;85.00
4376;DHT22;2202;50.866;12.750;2023-04-03T02:34:07;0.30;85.60
4376;DHT22;2202;50.866;12.750;2023-04-03T02:36:33;0.30;86.20
4376;DHT22;2202;50.866;12.750;2023-04-03T02:39:00;0.30;86.40
4376;DHT22;2202;50.866;12.750;2023-04-03T02:41:29;0.30;86.60
4376;DHT22;2202;50.866;12.750;2023-04-03T02:44:00;0.30;87.00
4376;DHT22;2202;50.866;12.750;2023-04-03T02:46:27;0.30;86.00
4376;DHT22;2202;50.866;12.750;2023-04-03T02:48:54;0.30;85.80
4376;DHT22;2202;50.866;12.750;2023-04-03T02:51:21;0.30;86.00
4376;DHT22;2202;50.866;12.750;2023-04-03T02:53:48;0.20;86.00
4376;DHT22;2202;50.866;12.750;2023-04-03T02:56:15;0.10;86.00
4376;DHT22;2202;50.866;12.750;2023-04-03T02:58:44;0.10;87.00
4376;DHT22;2202;50.866;12.750;2023-04-03T03:01:11;0.00;87.80
4376;DHT22;2202;50.866;12.750;2023-04-03T03:03:38;0.10;88.00
4376;DHT22;2202;50.866;12.750;2023-04-03T03:06:07;0.00;87.40
4376;DHT22;2202;50.866;12.750;2023-04-03T03:08:35;0.00;87.60
4376;DHT22;2202;50.866;12.750;2023-04-03T03:11:02;-0.10;87.80
4376;DHT22;2202;50.866;12.750;2023-04-03T03:13:29;-0.10;88.40
4376;DHT22;2202;50.866;12.750;2023-04-03T03:15:58;-0.10;88.20
4376;DHT22;2202;50.866;12.750;2023-04-03T03:18:25;-0.10;88.00
4376;DHT22;2202;50.866;12.750;2023-04-03T03:20:52;-0.10;88.00
4376;DHT22;2202;50.866;12.750;2023-04-03T03:23:19;-0.20;87.20
4376;DHT22;2202;50.866;12.750;2023-04-03T03:25:46;-0.20;87.40
4376;DHT22;2202;50.866;12.750;2023-04-03T03:28:13;-0.30;87.60
4376;DHT22;2202;50.866;12.750;2023-04-03T03:30:40;-0.30;88.00
4376;DHT22;2202;50.866;12.750;2023-04-03T03:33:08;-0.30;88.40
4376;DHT22;2202;50.866;12.750;2023-04-03T03:35:35;-0.40;88.40
4376;DHT22;2202;50.866;12.750;2023-04-03T03:38:02;-0.50;88.80
4376;DHT22;2202;50.866;12.750;2023-04-03T03:40:29;-0.50;89.40
4376;DHT22;2202;50.866;12.750;2023-04-03T03:42:55;-0.50;89.80
4376;DHT22;2202;50.866;12.750;2023-04-03T03:45:22;-0.50;89.40
4376;DHT22;2202;50.866;12.750;2023-04-03T03:47:49;-0.50;89.40
4376;DHT22;2202;50.866;12.750;2023-04-03T03:50:17;-0.60;89.00
4376;DHT22;2202;50.866;12.750;2023-04-03T03:52:44;-0.60;89.40
4376;DHT22;2202;50.866;12.750;2023-04-03T03:55:11;-0.70;89.80
4376;DHT22;2202;50.866;12.750;2023-04-03T03:57:38;-0.70;90.10
4376;DHT22;2202;50.866;12.750;2023-04-03T04:00:06;-0.70;89.80
4376;DHT22;2202;50.866;12.750;2023-04-03T04:02:34;-0.70;89.60
4376;DHT22;2202;50.866;12.750;2023-04-03T04:05:01;-0.70;89.80
4376;DHT22;2202;50.866;12.750;2023-04-03T04:07:29;-0.70;90.00
4376;DHT22;2202;50.866;12.750;2023-04-03T04:09:56;-0.80;90.10
4376;DHT22;2202;50.866;12.750;2023-04-03T04:12:23;-0.80;90.30
4376;DHT22;2202;50.866;12.750;2023-04-03T04:14:49;-0.80;90.50
4376;DHT22;2202;50.866;12.750;2023-04-03T04:17:16;-0.80;90.40
4376;DHT22;2202;50.866;12.750;2023-04-03T04:19:43;-0.80;90.10
4376;DHT22;2202;50.866;12.750;2023-04-03T04:22:10;-0.80;90.10
4376;DHT22;2202;50.866;12.750;2023-04-03T04:24:38;-0.90;90.30
4376;DHT22;2202;50.866;12.750;2023-04-03T04:27:05;-1.00;90.50
4376;DHT22;2202;50.866;12.750;2023-04-03T04:29:32;-1.00;90.60
4376;DHT22;2202;50.866;12.750;2023-04-03T04:32:01;-1.00;90.70
4376;DHT22;2202;50.866;12.750;2023-04-03T04:34:28;-1.00;90.80
4376;DHT22;2202;50.866;12.750;2023-04-03T04:36:55;-1.00;91.00
4376;DHT22;2202;50.866;12.750;2023-04-03T04:39:21;-1.00;90.80
4376;DHT22;2202;50.866;12.750;2023-04-03T04:41:50;-1.00;90.80
4376;DHT22;2202;50.866;12.750;2023-04-03T04:44:16;-1.10;91.10
4376;DHT22;2202;50.866;12.750;2023-04-03T04:46:43;-1.10;91.00
4376;DHT22;2202;50.866;12.750;2023-04-03T04:49:10;-1.10;91.00
4376;DHT22;2202;50.866;12.750;2023-04-03T04:51:37;-1.20;91.20
4376;DHT22;2202;50.866;12.750;2023-04-03T04:54:04;-1.20;91.20
4376;DHT22;2202;50.866;12.750;2023-04-03T04:56:31;-1.20;91.20
4376;DHT22;2202;50.866;12.750;2023-04-03T04:58:59;-1.30;91.10
4376;DHT22;2202;50.866;12.750;2023-04-03T05:01:26;-1.30;91.30
4376;DHT22;2202;50.866;12.750;2023-04-03T05:03:54;-1.30;91.40
4376;DHT22;2202;50.866;12.750;2023-04-03T05:06:21;-1.40;91.50
4376;DHT22;2202;50.866;12.750;2023-04-03T05:08:48;-1.40;91.50
4376;DHT22;2202;50.866;12.750;2023-04-03T05:11:14;-1.40;91.60
4376;DHT22;2202;50.866;12.750;2023-04-03T05:13:41;-1.40;91.70
4376;DHT22;2202;50.866;12.750;2023-04-03T05:16:09;-1.40;92.00
4376;DHT22;2202;50.866;12.750;2023-04-03T05:18:36;-1.40;92.00
4376;DHT22;2202;50.866;12.750;2023-04-03T05:21:04;-1.40;92.10
4376;DHT22;2202;50.866;12.750;2023-04-03T05:23:31;-1.40;92.20
4376;DHT22;2202;50.866;12.750;2023-04-03T05:25:58;-1.40;92.10
4376;DHT22;2202;50.866;12.750;2023-04-03T05:28:25;-1.40;92.10
4376;DHT22;2202;50.866;12.750;2023-04-03T05:30:55;-1.40;92.10
4376;DHT22;2202;50.866;12.750;2023-04-03T05:33:24;-1.40;92.20
4376;DHT22;2202;50.866;12.750;2023-04-03T05:35:51;-1.40;92.10
4376;DHT22;2202;50.866;12.750;2023-04-03T05:38:18;-1.40;92.00
4376;DHT22;2202;50.866;12.750;2023-04-03T05:40:45;-1.40;92.10
4376;DHT22;2202;50.866;12.750;2023-04-03T05:43:12;-1.50;92.00
4376;DHT22;2202;50.866;12.750;2023-04-03T05:45:39;-1.50;92.10
4376;DHT22;2202;50.866;12.750;2023-04-03T05:48:06;-1.40;92.00
4376;DHT22;2202;50.866;12.750;2023-04-03T05:50:34;-1.30;91.90
4376;DHT22;2202;50.866;12.750;2023-04-03T05:53:02;-1.20;91.80
4376;DHT22;2202;50.866;12.750;2023-04-03T05:55:29;-1.20;91.70
4376;DHT22;2202;50.866;12.750;2023-04-03T05:57:56;-1.00;91.50
4376;DHT22;2202;50.866;12.750;2023-04-03T06:00:23;-0.90;91.10
4376;DHT22;2202;50.866;12.750;2023-04-03T06:02:50;-0.80;91.00
4376;DHT22;2202;50.866;12.750;2023-04-03T06:05:17;-0.60;90.10
4376;DHT22;2202;50.866;12.750;2023-04-03T06:07:45;-0.50;89.60
4376;DHT22;2202;50.866;12.750;2023-04-03T06:10:14;-0.50;88.20
4376;DHT22;2202;50.866;12.750;2023-04-03T06:12:41;-0.60;87.80
4376;DHT22;2202;50.866;12.750;2023-04-03T06:15:09;-0.70;88.60
4376;DHT22;2202;50.866;12.750;2023-04-03T06:17:37;-0.70;88.80
4376;DHT22;2202;50.866;12.750;2023-04-03T06:20:05;-0.70;88.20
4376;DHT22;2202;50.866;12.750;2023-04-03T06:22:32;-0.80;89.20
4376;DHT22;2202;50.866;12.750;2023-04-03T06:25:00;-0.80;89.80
4376;DHT22;2202;50.866;12.750;2023-04-03T06:27:27;-0.80;89.20
4376;DHT22;2202;50.866;12.750;2023-04-03T06:29:54;-0.70;88.60
4376;DHT22;2202;50.866;12.750;2023-04-03T06:32:21;-0.80;88.00
4376;DHT22;2202;50.866;12.750;2023-04-03T06:34:48;-0.90;88.80
4376;DHT22;2202;50.866;12.750;2023-04-03T06:37:17;-0.80;90.10
4376;DHT22;2202;50.866;12.750;2023-04-03T06:39:44;-0.70;89.40
4376;DHT22;2202;50.866;12.750;2023-04-03T06:42:13;-0.70;89.20
4376;DHT22;2202;50.866;12.750;2023-04-03T06:44:39;-0.70;89.40
4376;DHT22;2202;50.866;12.750;2023-04-03T06:47:08;-0.70;88.80
4376;DHT22;2202;50.866;12.750;2023-04-03T06:49:36;-0.60;89.00
4376;DHT22;2202;50.866;12.750;2023-04-03T06:52:03;-0.60;86.80
4376;DHT22;2202;50.866;12.750;2023-04-03T06:54:30;-0.60;87.80
4376;DHT22;2202;50.866;12.750;2023-04-03T06:56:58;-0.60;87.40
4376;DHT22;2202;50.866;12.750;2023-04-03T06:59:26;-0.60;87.60
4376;DHT22;2202;50.866;12.750;2023-04-03T07:01:53;-0.60;87.00
4376;DHT22;2202;50.866;12.750;2023-04-03T07:04:20;-0.60;86.00
4376;DHT22;2202;50.866;12.750;2023-04-03T07:06:47;-0.60;86.60
4376;DHT22;2202;50.866;12.750;2023-04-03T07:09:15;-0.70;86.60
4376;DHT22;2202;50.866;12.750;2023-04-03T07:11:41;-0.60;87.40
4376;DHT22;2202;50.866;12.750;2023-04-03T07:14:08;-0.50;86.80
4376;DHT22;2202;50.866;12.750;2023-04-03T07:16:36;-0.40;85.60
4376;DHT22;2202;50.866;12.750;2023-04-03T07:19:03;-0.40;84.40
4376;DHT22;2202;50.866;12.750;2023-04-03T07:21:30;-0.50;85.00
4376;DHT22;2202;50.866;12.750;2023-04-03T07:23:57;-0.30;85.20
4376;DHT22;2202;50.866;12.750;2023-04-03T07:26:24;-0.30;82.80
4376;DHT22;2202;50.866;12.750;2023-04-03T07:28:51;-0.40;82.80
4376;DHT22;2202;50.866;12.750;2023-04-03T07:31:18;-0.40;83.60
4376;DHT22;2202;50.866;12.750;2023-04-03T07:33:46;-0.40;83.00
4376;DHT22;2202;50.866;12.750;2023-04-03T07:36:16;-0.30;83.00
4376;DHT22;2202;50.866;12.750;2023-04-03T07:38:43;-0.30;83.80
4376;DHT22;2202;50.866;12.750;2023-04-03T07:41:12;-0.30;83.20
4376;DHT22;2202;50.866;12.750;2023-04-03T07:43:40;-0.40;81.40
4376;DHT22;2202;50.866;12.750;2023-04-03T07:46:07;-0.30;82.40
4376;DHT22;2202;50.866;12.750;2023-04-03T07:48:35;-0.30;84.00
4376;DHT22;2202;50.866;12.750;2023-04-03T07:51:04;-0.30;82.00
4376;DHT22;2202;50.866;12.750;2023-04-03T07:53:31;-0.10;82.40
4376;DHT22;2202;50.866;12.750;2023-04-03T07:55:59;0.10;82.60
4376;DHT22;2202;50.866;12.750;2023-04-03T07:58:27;0.30;78.60
4376;DHT22;2202;50.866;12.750;2023-04-03T08:00:53;0.40;78.60
4376;DHT22;2202;50.866;12.750;2023-04-03T08:03:20;0.40;77.80
4376;DHT22;2202;50.866;12.750;2023-04-03T08:05:49;0.50;77.80
4376;DHT22;2202;50.866;12.750;2023-04-03T08:08:19;0.40;76.60
4376;DHT22;2202;50.866;12.750;2023-04-03T08:10:48;0.40;78.00
4376;DHT22;2202;50.866;12.750;2023-04-03T08:13:15;0.40;78.60
4376;DHT22;2202;50.866;12.750;2023-04-03T08:15:42;0.50;78.60
4376;DHT22;2202;50.866;12.750;2023-04-03T08:18:09;0.60;78.80
4376;DHT22;2202;50.866;12.750;2023-04-03T08:20:37;0.60;79.40
4376;DHT22;2202;50.866;12.750;2023-04-03T08:23:04;0.70;77.40
4376;DHT22;2202;50.866;12.750;2023-04-03T08:25:32;0.80;77.80
4376;DHT22;2202;50.866;12.750;2023-04-03T08:27:59;0.80;76.60
4376;DHT22;2202;50.866;12.750;2023-04-03T08:30:27;0.80;77.00
4376;DHT22;2202;50.866;12.750;2023-04-03T08:32:54;0.90;77.00
4376;DHT22;2202;50.866;12.750;2023-04-03T08:35:21;0.90;76.40
4376;DHT22;2202;50.866;12.750;2023-04-03T08:37:48;0.90;77.80
4376;DHT22;2202;50.866;12.750;2023-04-03T08:40:16;1.10;77.40
4376;DHT22;2202;50.866;12.750;2023-04-03T08:42:56;1.20;75.00
4376;DHT22;2202;50.866;12.750;2023-04-03T08:45:30;1.30;73.20
4376;DHT22;2202;50.866;12.750;2023-04-03T08:48:05;1.50;75.40
4376;DHT22;2202;50.866;12.750;2023-04-03T08:50:37;1.70;73.40
4376;DHT22;2202;50.866;12.750;2023-04-03T08:53:06;1.80;72.40
4376;DHT22;2202;50.866;12.750;2023-04-03T08:55:40;1.90;70.00
4376;DHT22;2202;50.866;12.750;2023-04-03T08:58:12;1.90;69.80
4376;DHT22;2202;50.866;12.750;2023-04-03T09:00:45;1.90;71.40
4376;DHT22;2202;50.866;12.750;2023-04-03T09:03:14;2.00;72.40
4376;DHT22;2202;50.866;12.750;2023-04-03T09:05:45;1.90;70.80
4376;DHT22;2202;50.866;12.750;2023-04-03T09:08:22;1.70;70.00
4376;DHT22;2202;50.866;12.750;2023-04-03T09:10:54;1.50;72.60
4376;DHT22;2202;50.866;12.750;2023-04-03T09:13:32;1.50;74.00
4376;DHT22;2202;50.866;12.750;2023-04-03T09:16:11;1.70;75.20
4376;DHT22;2202;50.866;12.750;2023-04-03T09:18:45;2.00;70.60
4376;DHT22;2202;50.866;12.750;2023-04-03T09:21:20;2.30;66.80
4376;DHT22;2202;50.866;12.750;2023-04-03T09:23:54;2.80;71.60
4376;DHT22;2202;50.866;12.750;2023-04-03T09:26:25;3.40;63.40
4376;DHT22;2202;50.866;12.750;2023-04-03T09:28:55;3.70;60.10
4376;DHT22;2202;50.866;12.750;2023-04-03T09:31:25;3.70;56.60
4376;DHT22;2202;50.866;12.750;2023-04-03T09:33:54;3.70;57.10
4376;DHT22;2202;50.866;12.750;2023-04-03T09:36:43;3.90;59.80
4376;DHT22;2202;50.866;12.750;2023-04-03T09:39:13;4.10;59.60
4376;DHT22;2202;50.866;12.750;2023-04-03T09:41:41;4.30;55.00
4376;DHT22;2202;50.866;12.750;2023-04-03T09:44:23;3.90;52.10
4376;DHT22;2202;50.866;12.750;2023-04-03T09:46:50;3.60;56.20
4376;DHT22;2202;50.866;12.750;2023-04-03T09:49:17;3.70;57.10
4376;DHT22;2202;50.866;12.750;2023-04-03T09:51:44;3.40;56.20
4376;DHT22;2202;50.866;12.750;2023-04-03T09:54:34;3.20;59.60
4376;DHT22;2202;50.866;12.750;2023-04-03T09:57:07;3.50;60.10
4376;DHT22;2202;50.866;12.750;2023-04-03T09:59:38;3.70;56.40
4376;DHT22;2202;50.866;12.750;2023-04-03T10:02:22;3.80;58.20
4376;DHT22;2202;50.866;12.750;2023-04-03T10:04:50;4.00;56.40
4376;DHT22;2202;50.866;12.750;2023-04-03T10:07:31;4.00;53.00
4376;DHT22;2202;50.866;12.750;2023-04-03T10:10:01;3.50;55.00
4376;DHT22;2202;50.866;12.750;2023-04-03T10:12:29;3.50;55.90
4376;DHT22;2202;50.866;12.750;2023-04-03T10:14:59;3.60;58.00
4376;DHT22;2202;50.866;12.750;2023-04-03T10:17:38;3.70;58.90
4376;DHT22;2202;50.866;12.750;2023-04-03T10:20:21;3.90;55.00
4376;DHT22;2202;50.866;12.750;2023-04-03T10:23:00;4.10;55.10
4376;DHT22;2202;50.866;12.750;2023-04-03T10:25:34;4.30;52.70
4376;DHT22;2202;50.866;12.750;2023-04-03T10:28:08;4.30;54.30
4376;DHT22;2202;50.866;12.750;2023-04-03T10:30:43;4.30;50.90
4376;DHT22;2202;50.866;12.750;2023-04-03T10:33:31;4.10;54.80
4376;DHT22;2202;50.866;12.750;2023-04-03T10:36:22;4.40;54.60
4376;DHT22;2202;50.866;12.750;2023-04-03T10:38:59;4.50;50.30
4376;DHT22;2202;50.866;12.750;2023-04-03T10:41:35;4.40;53.90
4376;DHT22;2202;50.866;12.750;2023-04-03T10:44:11;4.30;52.70
4376;DHT22;2202;50.866;12.750;2023-04-03T10:46:45;4.40;53.70
4376;DHT22;2202;50.866;12.750;2023-04-03T10:49:22;4.70;51.90
4376;DHT22;2202;50.866;12.750;2023-04-03T10:51:58;5.00;56.00
4376;DHT22;2202;50.866;12.750;2023-04-03T10:54:34;5.10;53.00
4376;DHT22;2202;50.866;12.750;2023-04-03T10:57:04;5.30;54.60
4376;DHT22;2202;50.866;12.750;2023-04-03T10:59:33;5.80;53.00
4376;DHT22;2202;50.866;12.750;2023-04-03T11:02:07;6.00;48.60
4376;DHT22;2202;50.866;12.750;2023-04-03T11:04:39;5.20;48.90
4376;DHT22;2202;50.866;12.750;2023-04-03T11:07:11;5.00;53.50
4376;DHT22;2202;50.866;12.750;2023-04-03T11:09:43;5.10;51.80
4376;DHT22;2202;50.866;12.750;2023-04-03T11:12:14;5.00;52.80
4376;DHT22;2202;50.866;12.750;2023-04-03T11:14:43;4.90;48.40
4376;DHT22;2202;50.866;12.750;2023-04-03T11:17:24;4.60;50.50
4376;DHT22;2202;50.866;12.750;2023-04-03T11:20:00;4.30;50.50
4376;DHT22;2202;50.866;12.750;2023-04-03T11:22:33;4.10;53.20
4376;DHT22;2202;50.866;12.750;2023-04-03T11:25:05;4.00;49.30
4376;DHT22;2202;50.866;12.750;2023-04-03T11:27:37;3.80;47.30
4376;DHT22;2202;50.866;12.750;2023-04-03T11:30:11;3.70;47.70
4376;DHT22;2202;50.866;12.750;2023-04-03T11:33:01;3.80;49.80
4376;DHT22;2202;50.866;12.750;2023-04-03T11:35:30;3.90;48.40
4376;DHT22;2202;50.866;12.750;2023-04-03T11:38:00;4.00;47.90
4376;DHT22;2202;50.866;12.750;2023-04-03T11:40:29;4.20;47.30
4376;DHT22;2202;50.866;12.750;2023-04-03T11:43:05;4.50;47.20
4376;DHT22;2202;50.866;12.750;2023-04-03T11:45:37;4.80;46.40
4376;DHT22;2202;50.866;12.750;2023-04-03T11:48:41;4.90;46.60
4376;DHT22;2202;50.866;12.750;2023-04-03T11:50:58;4.90;47.20
4376;DHT22;2202;50.866;12.750;2023-04-03T11:53:28;4.70;48.60
4376;DHT22;2202;50.866;12.750;2023-04-03T11:59:15;4.00;49.30
4376;DHT22;2202;50.866;12.750;2023-04-03T12:01:45;3.80;51.10
4376;DHT22;2202;50.866;12.750;2023-04-03T12:04:15;3.90;51.80
4376;DHT22;2202;50.866;12.750;2023-04-03T12:10:02;4.00;45.40
4376;DHT22;2202;50.866;12.750;2023-04-03T12:12:39;3.90;44.50
4376;DHT22;2202;50.866;12.750;2023-04-03T12:15:25;4.10;44.50
4376;DHT22;2202;50.866;12.750;2023-04-03T12:17:52;4.40;44.00
4376;DHT22;2202;50.866;12.750;2023-04-03T12:20:58;4.60;45.60
4376;DHT22;2202;50.866;12.750;2023-04-03T12:23:28;4.30;47.00
4376;DHT22;2202;50.866;12.750;2023-04-03T12:26:01;4.00;48.20
4376;DHT22;2202;50.866;12.750;2023-04-03T12:28:35;3.90;49.60
4376;DHT22;2202;50.866;12.750;2023-04-03T12:31:04;4.00;47.50
4376;DHT22;2202;50.866;12.750;2023-04-03T12:33:42;4.10;47.70
4376;DHT22;2202;50.866;12.750;2023-04-03T12:36:18;4.20;45.00
4376;DHT22;2202;50.866;12.750;2023-04-03T12:39:03;4.40;44.70
4376;DHT22;2202;50.866;12.750;2023-04-03T12:41:38;4.20;43.60
4376;DHT22;2202;50.866;12.750;2023-04-03T12:47:24;4.40;47.50
4376;DHT22;2202;50.866;12.750;2023-04-03T12:49:53;4.40;47.30
4376;DHT22;2202;50.866;12.750;2023-04-03T12:52:33;4.20;47.30
4376;DHT22;2202;50.866;12.750;2023-04-03T12:55:02;3.90;48.20
4376;DHT22;2202;50.866;12.750;2023-04-03T12:57:30;4.00;47.00
4376;DHT22;2202;50.866;12.750;2023-04-03T12:59:58;3.90;49.80
4376;DHT22;2202;50.866;12.750;2023-04-03T13:02:27;4.00;48.20
4376;DHT22;2202;50.866;12.750;2023-04-03T13:04:56;4.20;49.60
4376;DHT22;2202;50.866;12.750;2023-04-03T13:07:29;4.40;48.40
4376;DHT22;2202;50.866;12.750;2023-04-03T13:10:14;4.40;44.10
4376;DHT22;2202;50.866;12.750;2023-04-03T13:12:52;4.40;47.20
4376;DHT22;2202;50.866;12.750;2023-04-03T13:15:20;4.70;47.30
4376;DHT22;2202;50.866;12.750;2023-04-03T13:17:48;4.70;44.80
4376;DHT22;2202;50.866;12.750;2023-04-03T13:20:21;4.80;44.50
4376;DHT22;2202;50.866;12.750;2023-04-03T13:22:56;4.70;45.20
4376;DHT22;2202;50.866;12.750;2023-04-03T13:25:26;4.60;46.80
4376;DHT22;2202;50.866;12.750;2023-04-03T13:27:54;4.40;46.80
4376;DHT22;2202;50.866;12.750;2023-04-03T13:30:25;4.00;47.90
4376;DHT22;2202;50.866;12.750;2023-04-03T13:32:54;3.80;47.90
4376;DHT22;2202;50.866;12.750;2023-04-03T13:35:28;3.90;48.90
4376;DHT22;2202;50.866;12.750;2023-04-03T13:38:00;4.10;46.30
4376;DHT22;2202;50.866;12.750;2023-04-03T13:40:27;4.20;45.40
4376;DHT22;2202;50.866;12.750;2023-04-03T13:43:04;4.10;45.60
4376;DHT22;2202;50.866;12.750;2023-04-03T13:45:33;4.10;45.90
4376;DHT22;2202;50.866;12.750;2023-04-03T13:48:10;4.10;46.40
4376;DHT22;2202;50.866;12.750;2023-04-03T13:50:55;3.70;45.60
4376;DHT22;2202;50.866;12.750;2023-04-03T13:53:24;3.60;48.20
4376;DHT22;2202;50.866;12.750;2023-04-03T13:56:04;3.70;49.30
4376;DHT22;2202;50.866;12.750;2023-04-03T13:58:33;3.80;50.50
4376;DHT22;2202;50.866;12.750;2023-04-03T14:01:06;3.80;47.30
4376;DHT22;2202;50.866;12.750;2023-04-03T14:03:40;3.70;45.90
4376;DHT22;2202;50.866;12.750;2023-04-03T14:06:10;3.60;49.60
4376;DHT22;2202;50.866;12.750;2023-04-03T14:08:39;3.70;48.90
4376;DHT22;2202;50.866;12.750;2023-04-03T14:11:10;3.80;51.10
4376;DHT22;2202;50.866;12.750;2023-04-03T14:13:38;3.90;49.80
4376;DHT22;2202;50.866;12.750;2023-04-03T14:16:05;3.90;48.20
4376;DHT22;2202;50.866;12.750;2023-04-03T14:18:32;3.70;47.20
4376;DHT22;2202;50.866;12.750;2023-04-03T14:20:59;3.60;47.70
4376;DHT22;2202;50.866;12.750;2023-04-03T14:23:26;3.60;47.70
4376;DHT22;2202;50.866;12.750;2023-04-03T14:25:54;3.60;46.40
4376;DHT22;2202;50.866;12.750;2023-04-03T14:28:22;3.50;47.20
4376;DHT22;2202;50.866;12.750;2023-04-03T14:30:50;3.50;48.20
4376;DHT22;2202;50.866;12.750;2023-04-03T14:33:20;3.50;48.60
4376;DHT22;2202;50.866;12.750;2023-04-03T14:35:47;3.50;50.00
4376;DHT22;2202;50.866;12.750;2023-04-03T14:38:24;3.50;51.40
4376;DHT22;2202;50.866;12.750;2023-04-03T14:40:51;3.50;49.80
4376;DHT22;2202;50.866;12.750;2023-04-03T14:43:20;3.40;49.80
4376;DHT22;2202;50.866;12.750;2023-04-03T14:45:48;3.40;50.00
4376;DHT22;2202;50.866;12.750;2023-04-03T14:48:18;3.50;50.30
4376;DHT22;2202;50.866;12.750;2023-04-03T14:50:46;3.60;49.60
4376;DHT22;2202;50.866;12.750;2023-04-03T14:53:14;3.60;48.60
4376;DHT22;2202;50.866;12.750;2023-04-03T14:55:43;3.70;48.90
4376;DHT22;2202;50.866;12.750;2023-04-03T14:58:13;3.80;50.30
4376;DHT22;2202;50.866;12.750;2023-04-03T15:00:42;3.90;48.20
4376;DHT22;2202;50.866;12.750;2023-04-03T15:03:14;3.90;48.20
4376;DHT22;2202;50.866;12.750;2023-04-03T15:05:42;3.70;46.60
4376;DHT22;2202;50.866;12.750;2023-04-03T15:08:18;3.70;47.90
4376;DHT22;2202;50.866;12.750;2023-04-03T15:10:46;3.70;47.20
4376;DHT22;2202;50.866;12.750;2023-04-03T15:13:13;3.80;45.70
4376;DHT22;2202;50.866;12.750;2023-04-03T15:15:42;3.80;44.80
4376;DHT22;2202;50.866;12.750;2023-04-03T15:18:15;3.70;44.50
4376;DHT22;2202;50.866;12.750;2023-04-03T15:20:43;3.70;44.30
4376;DHT22;2202;50.866;12.750;2023-04-03T15:23:11;3.60;43.60
4376;DHT22;2202;50.866;12.750;2023-04-03T15:25:39;3.50;44.80
4376;DHT22;2202;50.866;12.750;2023-04-03T15:28:06;3.50;44.70
4376;DHT22;2202;50.866;12.750;2023-04-03T15:30:36;3.70;47.00
4376;DHT22;2202;50.866;12.750;2023-04-03T15:33:06;3.80;48.20
4376;DHT22;2202;50.866;12.750;2023-04-03T15:35:33;3.90;47.30
4376;DHT22;2202;50.866;12.750;2023-04-03T15:38:00;3.70;48.40
4376;DHT22;2202;50.866;12.750;2023-04-03T15:40:27;3.50;49.60
4376;DHT22;2202;50.866;12.750;2023-04-03T15:42:54;3.50;50.50
4376;DHT22;2202;50.866;12.750;2023-04-03T15:45:21;3.30;50.70
4376;DHT22;2202;50.866;12.750;2023-04-03T15:47:48;3.20;53.50
4376;DHT22;2202;50.866;12.750;2023-04-03T15:50:16;3.20;54.30
4376;DHT22;2202;50.866;12.750;2023-04-03T15:52:43;3.30;52.80
4376;DHT22;2202;50.866;12.750;2023-04-03T15:55:10;3.30;50.20
4376;DHT22;2202;50.866;12.750;2023-04-03T15:57:37;3.10;48.90
4376;DHT22;2202;50.866;12.750;2023-04-03T16:00:05;3.10;49.30
4376;DHT22;2202;50.866;12.750;2023-04-03T16:02:32;3.10;51.20
4376;DHT22;2202;50.866;12.750;2023-04-03T16:05:00;3.20;51.60
4376;DHT22;2202;50.866;12.750;2023-04-03T16:07:28;3.20;50.30
4376;DHT22;2202;50.866;12.750;2023-04-03T16:09:55;3.10;48.90
4376;DHT22;2202;50.866;12.750;2023-04-03T16:12:22;3.00;48.90
4376;DHT22;2202;50.866;12.750;2023-04-03T16:14:49;2.90;50.00
4376;DHT22;2202;50.866;12.750;2023-04-03T16:17:15;2.80;50.30
4376;DHT22;2202;50.866;12.750;2023-04-03T16:19:42;2.80;51.60
4376;DHT22;2202;50.866;12.750;2023-04-03T16:22:09;2.70;50.20
4376;DHT22;2202;50.866;12.750;2023-04-03T16:24:37;2.60;49.10